Park Hills, Illinois
Current Conditions -  °F | °C
As of 10:55 AM on Thursday 23 Oct 2014 (Local Time) from K1H2 Reporting Station
Clear Clear  
Wind Chill: 54°   Ceiling: Unl
Heat Index: 54°   Visibility: 10mi
Dew Point: 41°   Wind: 6mph
Humidity: 62%   Direction: 160°SSE
Pressure: 30.24"   Gusts: NA
Location:  39.1183°N, 88.6059°W
Report Text: K1H2 231555Z AUTO 16005KT 10SM CLR 12/05 A3024 RMK AO2 T01210051
Loading
Personal Weather Stations






























Interactive Weather Map
Tropical Storm Tracking
New forecast layout! Learn more

10-Day Weather Forecast

Advertisements
Track Severe Weather on mobile